createdAt,value
2022-10-20T00:01:15.034Z,72.08
2022-10-20T00:03:43.189Z,71.69
2022-10-20T00:06:13.298Z,71.97
2022-10-20T00:08:41.535Z,70.46
2022-10-20T00:11:10.671Z,71.40
2022-10-20T00:13:38.861Z,71.16
2022-10-20T00:16:06.794Z,72.90
2022-10-20T00:18:34.498Z,73.03
2022-10-20T00:21:05.985Z,72.97
2022-10-20T00:23:33.661Z,72.62
2022-10-20T00:26:06.161Z,72.77
2022-10-20T00:28:34.069Z,72.58
2022-10-20T00:31:03.973Z,74.66
2022-10-20T00:33:31.316Z,75.23
2022-10-20T00:36:03.251Z,72.48
2022-10-20T00:38:31.153Z,73.67
2022-10-20T00:41:03.349Z,73.89
2022-10-20T00:43:54.427Z,75.15
2022-10-20T00:46:38.381Z,76.30
2022-10-20T00:49:19.255Z,76.90
2022-10-20T00:51:47.076Z,77.20
2022-10-20T00:54:18.336Z,76.10
2022-10-20T00:56:47.248Z,76.33
2022-10-20T00:59:17.601Z,75.88
2022-10-20T01:01:45.810Z,77.38
2022-10-20T01:04:13.271Z,77.30
2022-10-20T01:06:40.933Z,76.95
2022-10-20T01:09:08.648Z,77.32
2022-10-20T01:11:58.962Z,78.50
2022-10-20T01:14:48.481Z,78.19
2022-10-20T01:17:15.691Z,78.24
2022-10-20T01:20:13.073Z,78.11
2022-10-20T01:22:59.174Z,77.54
2022-10-20T01:25:40.464Z,77.68
2022-10-20T01:28:23.794Z,79.05
2022-10-20T01:30:57.274Z,78.52
2022-10-20T01:33:50.371Z,78.52
2022-10-20T01:36:32.942Z,78.72
2022-10-20T01:39:05.151Z,78.85
2022-10-20T01:42:00.657Z,78.98
2022-10-20T01:44:28.902Z,79.78
2022-10-20T01:46:57.248Z,77.60
2022-10-20T01:49:24.976Z,78.72
2022-10-20T01:51:53.121Z,78.95
2022-10-20T01:54:22.902Z,79.35
2022-10-20T01:57:15.299Z,79.54
2022-10-20T01:59:47.754Z,77.04
2022-10-20T02:02:46.296Z,79.05
2022-10-20T02:05:44.376Z,77.59
2022-10-20T02:08:17.169Z,78.42
2022-10-20T02:10:50.101Z,78.89
2022-10-20T02:13:19.426Z,78.77
2022-10-20T02:15:51.073Z,79.40
2022-10-20T02:18:22.574Z,78.77
2022-10-20T02:20:51.881Z,79.55
2022-10-20T02:23:19.258Z,81.28
2022-10-20T02:25:51.627Z,79.97
2022-10-20T02:28:20.077Z,80.18
2022-10-20T02:30:47.742Z,81.03
2022-10-20T02:33:16.965Z,80.05
2022-10-20T02:35:53.904Z,80.81
2022-10-20T02:38:21.738Z,81.36
2022-10-20T02:40:49.342Z,81.12
2022-10-20T02:43:16.677Z,82.08
2022-10-20T02:45:43.977Z,82.12
2022-10-20T02:48:11.603Z,82.57
2022-10-20T02:50:38.959Z,82.44
2022-10-20T02:53:06.445Z,82.08
2022-10-20T02:55:34.024Z,80.64
2022-10-20T02:58:01.424Z,81.20
2022-10-20T03:00:31.098Z,81.54
2022-10-20T03:02:58.696Z,82.01
2022-10-20T03:05:27.064Z,82.62
2022-10-20T03:07:54.413Z,82.49
2022-10-20T03:10:22.163Z,82.72
2022-10-20T03:12:49.715Z,83.01
2022-10-20T03:15:17.641Z,83.33
2022-10-20T03:17:45.375Z,82.58
2022-10-20T03:20:12.799Z,82.84
2022-10-20T03:22:40.333Z,82.14
2022-10-20T03:25:08.410Z,82.39
2022-10-20T03:27:36.309Z,82.50
2022-10-20T03:30:04.316Z,82.49
2022-10-20T03:32:32.254Z,82.68
2022-10-20T03:34:59.755Z,83.20
2022-10-20T03:37:28.789Z,82.44
2022-10-20T03:39:57.766Z,81.92
2022-10-20T03:42:25.214Z,82.15
2022-10-20T03:44:52.698Z,81.41
2022-10-20T03:47:20.441Z,80.52
2022-10-20T03:49:47.813Z,78.65
2022-10-20T03:52:15.283Z,77.84
2022-10-20T03:54:42.885Z,78.69
2022-10-20T03:57:10.207Z,74.56
2022-10-20T03:59:37.614Z,76.87
2022-10-20T04:02:05.310Z,77.64
2022-10-20T04:04:32.994Z,78.21
2022-10-20T04:07:00.304Z,78.99
2022-10-20T04:09:27.642Z,80.29
2022-10-20T04:11:55.290Z,78.94
2022-10-20T04:14:22.687Z,80.07
2022-10-20T04:16:50.128Z,79.54
2022-10-20T04:19:17.723Z,79.89
2022-10-20T04:21:45.065Z,79.62
2022-10-20T04:24:12.369Z,79.01
2022-10-20T04:26:40.053Z,78.82
2022-10-20T04:29:07.455Z,78.60
2022-10-20T04:31:34.809Z,79.70
2022-10-20T04:34:02.468Z,79.96
2022-10-20T04:36:29.785Z,78.86
2022-10-20T04:38:57.112Z,78.92
2022-10-20T04:41:24.667Z,78.33
2022-10-20T04:43:52.551Z,79.05
2022-10-20T04:46:20.040Z,79.81
2022-10-20T04:48:47.637Z,75.37
2022-10-20T04:51:15.824Z,77.69
2022-10-20T04:53:43.225Z,76.26
2022-10-20T04:56:13.942Z,69.32
2022-10-20T04:58:41.308Z,67.49
2022-10-20T05:01:10.350Z,65.89
2022-10-20T05:03:37.950Z,67.18
2022-10-20T05:06:12.929Z,69.32
2022-10-20T05:08:41.855Z,74.48
2022-10-20T05:11:09.520Z,75.12
2022-10-20T05:13:37.347Z,75.99
2022-10-20T05:16:06.224Z,77.42
2022-10-20T05:18:34.319Z,76.84
2022-10-20T05:21:13.473Z,75.87
2022-10-20T05:23:41.834Z,76.20
2022-10-20T05:26:15.315Z,76.49
2022-10-20T05:28:44.913Z,77.13
2022-10-20T05:31:12.579Z,77.92
2022-10-20T05:33:48.293Z,77.12
2022-10-20T05:36:19.461Z,76.13
2022-10-20T05:38:50.858Z,73.94
2022-10-20T05:41:21.445Z,73.44
2022-10-20T05:44:00.190Z,75.06
2022-10-20T05:46:31.432Z,72.31
2022-10-20T05:49:00.522Z,70.26
2022-10-20T05:51:32.027Z,69.35
2022-10-20T05:53:59.731Z,66.25
2022-10-20T05:56:29.189Z,72.62
2022-10-20T05:58:57.621Z,72.44
2022-10-20T06:01:39.440Z,71.47
2022-10-20T06:04:10.656Z,73.08
2022-10-20T06:06:38.014Z,72.56
2022-10-20T06:09:07.700Z,71.70
2022-10-20T06:11:39.292Z,70.61
2022-10-20T06:14:08.129Z,73.85
2022-10-20T06:16:36.305Z,70.10
2022-10-20T06:19:03.984Z,72.57
2022-10-20T06:21:32.903Z,70.75
2022-10-20T06:24:01.917Z,69.22
2022-10-20T06:26:30.045Z,68.10
2022-10-20T06:29:03.557Z,67.29
2022-10-20T06:31:40.410Z,67.22
2022-10-20T06:34:09.827Z,67.10
2022-10-20T06:36:38.274Z,67.05
2022-10-20T06:39:07.318Z,67.12
2022-10-20T06:41:35.284Z,66.33
2022-10-20T06:44:03.554Z,66.96
2022-10-20T06:46:33.431Z,66.30
2022-10-20T06:49:01.752Z,65.82
2022-10-20T06:51:29.479Z,66.31
2022-10-20T06:53:56.915Z,65.94
2022-10-20T06:56:27.071Z,67.20
2022-10-20T06:58:56.034Z,67.31
2022-10-20T07:01:37.072Z,66.80
2022-10-20T07:04:07.313Z,67.24
2022-10-20T07:06:37.079Z,67.29
2022-10-20T07:09:08.438Z,67.25
2022-10-20T07:11:36.246Z,69.11
2022-10-20T07:14:04.299Z,69.39
2022-10-20T07:16:33.821Z,69.42
2022-10-20T07:19:02.028Z,68.00
2022-10-20T07:21:34.659Z,67.80
2022-10-20T07:24:04.986Z,68.50
2022-10-20T07:26:34.496Z,66.89
2022-10-20T07:29:03.776Z,66.65
2022-10-20T07:31:33.729Z,66.96
2022-10-20T07:34:13.054Z,65.60
2022-10-20T07:36:49.336Z,65.12
2022-10-20T07:39:16.734Z,64.80
2022-10-20T07:41:47.201Z,65.64
2022-10-20T07:44:15.101Z,67.77
2022-10-20T07:46:42.411Z,66.35
2022-10-20T07:51:57.418Z,65.63
2022-10-20T07:54:24.788Z,65.04
2022-10-20T07:56:52.137Z,63.25
2022-10-20T07:59:19.820Z,64.62
2022-10-20T08:01:47.288Z,64.43
2022-10-20T08:04:15.025Z,63.71
2022-10-20T08:06:42.368Z,62.37
2022-10-20T08:09:09.747Z,61.43
2022-10-20T08:11:37.408Z,60.67
2022-10-20T08:14:04.750Z,59.02
2022-10-20T08:19:26.280Z,61.15
2022-10-20T08:21:53.640Z,61.89
2022-10-20T08:24:21.403Z,63.06
2022-10-20T08:26:48.772Z,62.90
2022-10-20T08:29:16.102Z,60.28
2022-10-20T08:31:44.215Z,58.97
2022-10-20T08:34:11.702Z,58.54
2022-10-20T08:36:39.069Z,59.09
2022-10-20T08:39:06.761Z,59.02
2022-10-20T08:42:07.532Z,57.72
2022-10-20T08:44:34.596Z,60.54
2022-10-20T08:47:03.653Z,58.98
2022-10-20T08:49:33.281Z,56.74
2022-10-20T08:52:01.377Z,56.82
2022-10-20T08:54:29.031Z,56.35
2022-10-20T08:56:56.785Z,55.63
2022-10-20T08:59:29.114Z,55.41
2022-10-20T09:01:57.674Z,56.28
2022-10-20T09:04:29.912Z,56.29
2022-10-20T09:07:00.476Z,54.69
2022-10-20T09:09:30.494Z,54.91
2022-10-20T09:12:04.764Z,53.73
2022-10-20T09:14:35.461Z,54.20
2022-10-20T09:17:06.021Z,54.21
2022-10-20T09:19:36.032Z,53.87
2022-10-20T09:22:07.247Z,52.23
2022-10-20T09:24:35.630Z,50.42
2022-10-20T09:27:20.087Z,49.62
2022-10-20T09:29:47.743Z,48.77
2022-10-20T09:32:51.183Z,48.94
2022-10-20T09:35:20.863Z,46.86
2022-10-20T09:37:54.517Z,48.36
2022-10-20T09:40:22.747Z,50.42
2022-10-20T09:43:03.185Z,49.99
2022-10-20T09:45:32.193Z,49.07
2022-10-20T09:48:03.964Z,47.09
2022-10-20T09:50:37.451Z,49.08
2022-10-20T09:53:07.670Z,48.51
2022-10-20T09:55:36.889Z,49.97
2022-10-20T09:58:05.148Z,50.51
2022-10-20T10:00:45.388Z,49.58
2022-10-20T10:03:21.539Z,48.41
2022-10-20T10:05:53.255Z,49.10
2022-10-20T10:08:23.470Z,48.64
2022-10-20T10:11:00.045Z,47.50
2022-10-20T10:13:29.943Z,48.56
2022-10-20T10:16:11.824Z,49.36
2022-10-20T10:18:39.477Z,49.00
2022-10-20T10:21:09.493Z,49.05
2022-10-20T10:23:50.438Z,48.66
2022-10-20T10:26:52.071Z,47.85
2022-10-20T10:29:31.519Z,46.64
2022-10-20T10:32:03.674Z,48.04
2022-10-20T10:34:45.362Z,46.30
2022-10-20T10:37:15.066Z,46.67
2022-10-20T10:39:42.800Z,46.26
2022-10-20T10:42:31.957Z,46.57
2022-10-20T10:45:29.752Z,45.99
2022-10-20T10:48:14.840Z,46.02
2022-10-20T10:50:52.933Z,45.02
2022-10-20T10:53:32.104Z,44.03
2022-10-20T10:56:21.371Z,44.79
2022-10-20T10:58:58.824Z,45.04
2022-10-20T11:01:40.601Z,46.54
2022-10-20T11:04:33.294Z,46.11
2022-10-20T11:07:23.434Z,43.72
2022-10-20T11:09:56.718Z,42.82
2022-10-20T11:12:42.895Z,44.52
2022-10-20T11:15:28.971Z,45.25
2022-10-20T11:18:34.429Z,43.89
2022-10-20T11:21:20.331Z,42.87
2022-10-20T11:24:15.283Z,44.76
2022-10-20T11:26:47.748Z,45.67
2022-10-20T11:29:37.891Z,44.62
2022-10-20T11:32:12.337Z,45.35
2022-10-20T11:35:07.763Z,42.86
2022-10-20T11:37:45.490Z,41.43
2022-10-20T11:40:29.909Z,41.18
2022-10-20T11:43:13.354Z,40.78
2022-10-20T11:45:54.611Z,40.54
2022-10-20T11:48:29.133Z,40.22
2022-10-20T11:51:08.984Z,43.02
2022-10-20T11:53:45.965Z,42.80
2022-10-20T11:56:38.545Z,42.31
2022-10-20T11:59:48.143Z,43.46
2022-10-20T12:02:40.426Z,43.54
2022-10-20T12:05:47.827Z,43.94
2022-10-20T12:09:03.195Z,42.49
2022-10-20T12:11:39.513Z,41.42
2022-10-20T12:14:15.647Z,42.59
2022-10-20T12:16:52.040Z,43.20
2022-10-20T12:19:35.344Z,42.42
2022-10-20T12:22:39.179Z,42.93
2022-10-20T12:25:06.536Z,41.85
2022-10-20T12:27:34.799Z,41.58
2022-10-20T12:30:50.546Z,44.25
2022-10-20T12:33:19.927Z,43.65
2022-10-20T12:36:29.951Z,42.43
2022-10-20T12:39:12.620Z,42.38
2022-10-20T12:41:45.860Z,41.85
2022-10-20T12:44:17.963Z,43.25
2022-10-20T12:46:55.549Z,43.37
2022-10-20T12:49:35.418Z,42.27
2022-10-20T12:52:03.392Z,39.90
2022-10-20T12:54:35.268Z,40.66
2022-10-20T12:57:06.542Z,40.73
2022-10-20T12:59:38.153Z,38.94
2022-10-20T13:02:08.434Z,41.77
2022-10-20T13:05:01.484Z,42.64
2022-10-20T13:07:46.957Z,41.39
2022-10-20T13:10:26.845Z,40.79
2022-10-20T13:12:58.521Z,41.50
2022-10-20T13:15:26.522Z,40.97
2022-10-20T13:17:58.639Z,41.40
2022-10-20T13:20:37.639Z,41.02
2022-10-20T13:23:05.123Z,40.14
2022-10-20T13:25:36.356Z,41.33
2022-10-20T13:28:07.883Z,40.99
2022-10-20T13:30:36.288Z,41.05
2022-10-20T13:36:08.496Z,39.23
2022-10-20T13:38:35.696Z,39.35
2022-10-20T13:41:33.375Z,38.51
2022-10-20T13:44:19.616Z,38.96
2022-10-20T13:47:08.268Z,40.39
2022-10-20T13:50:06.228Z,41.69
2022-10-20T13:52:37.398Z,41.11
2022-10-20T13:55:06.841Z,41.63
2022-10-20T13:57:35.664Z,41.90
2022-10-20T14:00:16.936Z,41.64
2022-10-20T14:02:57.363Z,41.85
2022-10-20T14:05:25.531Z,42.28
2022-10-20T14:07:54.996Z,43.69
2022-10-20T14:10:22.296Z,42.82
2022-10-20T14:12:49.689Z,43.85
2022-10-20T14:15:23.287Z,43.51
2022-10-20T14:18:02.977Z,42.58
2022-10-20T14:20:32.855Z,42.15
2022-10-20T14:23:02.387Z,43.84
2022-10-20T14:25:31.463Z,42.31
2022-10-20T14:27:59.850Z,41.77
2022-10-20T14:30:28.321Z,42.06
2022-10-20T14:32:55.719Z,41.09
2022-10-20T14:35:29.693Z,41.58
2022-10-20T14:38:17.875Z,43.20
2022-10-20T14:40:54.306Z,42.11
2022-10-20T14:43:27.094Z,42.99
2022-10-20T14:45:56.859Z,42.65
2022-10-20T14:48:25.490Z,41.69
2022-10-20T14:50:54.129Z,41.46
2022-10-20T14:53:32.139Z,41.08
2022-10-20T14:56:02.603Z,40.72
2022-10-20T14:58:33.175Z,41.06
2022-10-20T15:01:28.058Z,41.68
2022-10-20T15:04:10.810Z,41.62
2022-10-20T15:06:38.270Z,42.19
2022-10-20T15:09:07.097Z,40.78
2022-10-20T15:11:34.510Z,40.19
2022-10-20T15:14:01.872Z,42.04
2022-10-20T15:16:45.108Z,42.69
2022-10-20T15:19:31.636Z,42.50
2022-10-20T15:22:08.680Z,42.41
2022-10-20T15:24:36.654Z,42.86
2022-10-20T15:27:05.061Z,43.00
2022-10-20T15:29:33.334Z,43.35
2022-10-20T15:32:00.878Z,43.28
2022-10-20T15:34:28.524Z,43.23
2022-10-20T15:36:55.904Z,45.04
2022-10-20T15:39:23.275Z,44.45
2022-10-20T15:41:53.759Z,44.55
2022-10-20T15:44:22.402Z,45.15
2022-10-20T15:46:53.434Z,44.79
2022-10-20T15:49:21.528Z,45.32
2022-10-20T15:51:50.576Z,46.21
2022-10-20T15:54:20.224Z,46.35
2022-10-20T15:56:48.349Z,47.43
2022-10-20T15:59:15.876Z,48.00
2022-10-20T16:01:43.436Z,48.70
2022-10-20T16:04:23.809Z,49.62
2022-10-20T16:06:57.660Z,50.56
2022-10-20T16:09:28.107Z,52.63
2022-10-20T16:11:55.470Z,52.99
2022-10-20T16:14:22.845Z,53.85
2022-10-20T16:16:50.582Z,54.65
2022-10-20T16:19:18.129Z,54.77
2022-10-20T16:21:45.661Z,58.01
2022-10-20T16:24:15.128Z,59.26
2022-10-20T16:26:42.543Z,59.23
2022-10-20T16:29:09.870Z,59.00
2022-10-20T16:31:37.780Z,59.43
2022-10-20T16:34:05.419Z,60.24
2022-10-20T16:36:32.822Z,58.80
2022-10-20T16:39:00.953Z,56.56
2022-10-20T16:41:28.290Z,59.51
2022-10-20T16:44:00.128Z,61.86
2022-10-20T16:46:29.003Z,62.17
2022-10-20T16:48:57.330Z,60.18
2022-10-20T16:51:24.846Z,61.88
2022-10-20T16:53:55.709Z,63.31
2022-10-20T16:56:25.725Z,62.87
2022-10-20T16:58:53.321Z,62.99
2022-10-20T17:01:21.968Z,62.80
2022-10-20T17:03:51.672Z,62.06
2022-10-20T17:06:21.813Z,61.86
2022-10-20T17:08:49.402Z,62.51
2022-10-20T17:11:19.318Z,62.39
2022-10-20T17:13:47.139Z,62.82
2022-10-20T17:16:17.419Z,62.24
2022-10-20T17:18:45.153Z,61.98
2022-10-20T17:21:14.707Z,61.54
2022-10-20T17:23:44.231Z,60.90
2022-10-20T17:26:20.553Z,60.25
2022-10-20T17:28:49.465Z,60.55
2022-10-20T17:31:18.490Z,60.51
2022-10-20T17:33:46.616Z,60.60
2022-10-20T17:36:15.131Z,59.94
2022-10-20T17:38:43.553Z,59.51
2022-10-20T17:41:13.359Z,59.70
2022-10-20T17:43:41.819Z,61.62
2022-10-20T17:46:12.890Z,62.90
2022-10-20T17:48:41.482Z,64.58
2022-10-20T17:51:13.395Z,65.89
2022-10-20T17:53:45.350Z,66.26
2022-10-20T17:56:28.112Z,66.08
2022-10-20T17:58:57.367Z,66.77
2022-10-20T18:01:33.908Z,66.36
2022-10-20T18:04:03.321Z,67.18
2022-10-20T18:06:34.587Z,67.34
2022-10-20T18:09:07.760Z,67.87
2022-10-20T18:11:36.058Z,68.44
2022-10-20T18:14:04.624Z,68.77
2022-10-20T18:16:34.008Z,72.06
2022-10-20T18:19:01.857Z,72.53
2022-10-20T18:21:31.683Z,74.07
2022-10-20T18:24:04.923Z,74.95
2022-10-20T18:26:35.559Z,75.01
2022-10-20T18:29:05.508Z,74.83
2022-10-20T18:31:37.894Z,74.45
2022-10-20T18:34:07.567Z,74.75
2022-10-20T18:36:39.111Z,74.22
2022-10-20T18:39:28.547Z,72.48
2022-10-20T18:41:56.648Z,71.70
2022-10-20T18:44:24.928Z,70.99
2022-10-20T18:46:57.832Z,71.51
2022-10-20T18:49:26.494Z,71.13
2022-10-20T18:51:54.326Z,71.87
2022-10-20T18:54:24.559Z,73.44
2022-10-20T18:56:52.983Z,73.19
2022-10-20T18:59:24.948Z,73.08
2022-10-20T19:01:53.073Z,73.37
2022-10-20T19:04:21.692Z,73.36
2022-10-20T19:06:49.629Z,72.78
2022-10-20T19:09:21.504Z,73.03
2022-10-20T19:14:18.521Z,72.23
2022-10-20T19:16:50.186Z,72.04
2022-10-20T19:19:27.398Z,70.79
2022-10-20T19:21:55.432Z,70.15
2022-10-20T19:24:24.573Z,69.90
2022-10-20T19:29:46.794Z,67.78
2022-10-20T19:32:17.616Z,68.34
2022-10-20T19:34:45.782Z,70.70
2022-10-20T19:37:13.485Z,72.71
2022-10-20T19:39:42.325Z,70.81
2022-10-20T19:42:11.365Z,72.22
2022-10-20T19:44:40.168Z,71.02
2022-10-20T19:47:08.512Z,70.59
2022-10-20T19:49:36.251Z,71.98
2022-10-20T19:52:05.414Z,70.60
2022-10-20T19:54:33.496Z,68.70
2022-10-20T19:57:01.489Z,66.07
2022-10-20T19:59:29.633Z,66.08
2022-10-20T20:01:57.511Z,65.49
2022-10-20T20:04:25.661Z,68.45
2022-10-20T20:06:54.725Z,69.89
2022-10-20T20:09:23.978Z,71.72
2022-10-20T20:11:52.080Z,70.52
2022-10-20T20:14:20.349Z,69.96
2022-10-20T20:16:49.413Z,69.65
2022-10-20T20:19:18.141Z,69.89
2022-10-20T20:21:46.252Z,69.90
2022-10-20T20:24:14.722Z,69.84
2022-10-20T20:26:44.561Z,69.04
2022-10-20T20:29:12.270Z,68.03
2022-10-20T20:31:40.649Z,69.15
2022-10-20T20:34:08.729Z,67.32
2022-10-20T20:36:36.130Z,67.19
2022-10-20T20:39:03.499Z,65.39
2022-10-20T20:41:31.945Z,66.15
2022-10-20T20:44:02.927Z,66.17
2022-10-20T20:46:34.017Z,66.52
2022-10-20T20:49:01.379Z,66.11
2022-10-20T20:51:33.271Z,64.38
2022-10-20T20:54:01.610Z,64.49
2022-10-20T20:56:29.041Z,64.48
2022-10-20T20:58:56.425Z,63.64
2022-10-20T21:01:29.040Z,63.06
2022-10-20T21:04:01.385Z,64.30
2022-10-20T21:06:37.990Z,65.91
2022-10-20T21:09:17.016Z,66.78
2022-10-20T21:11:44.647Z,66.17
2022-10-20T21:14:11.955Z,66.67
2022-10-20T21:16:39.266Z,65.07
2022-10-20T21:19:09.565Z,65.82
2022-10-20T21:21:39.097Z,67.30
2022-10-20T21:24:06.932Z,67.32
2022-10-20T21:26:34.248Z,67.80
2022-10-20T21:29:01.592Z,66.98
2022-10-20T21:31:30.362Z,67.73
2022-10-20T21:34:06.754Z,67.35
2022-10-20T21:36:35.489Z,66.72
2022-10-20T21:39:05.341Z,66.27
2022-10-20T21:41:34.870Z,64.86
2022-10-20T21:44:04.157Z,63.79
2022-10-20T21:46:33.266Z,65.66
2022-10-20T21:49:05.019Z,64.78
2022-10-20T21:51:37.613Z,66.09
2022-10-20T21:54:11.796Z,66.16
2022-10-20T21:56:57.784Z,64.95
2022-10-20T21:59:26.048Z,64.82
2022-10-20T22:01:55.352Z,66.24
2022-10-20T22:04:25.383Z,66.68
2022-10-20T22:06:53.390Z,66.46
2022-10-20T22:09:21.311Z,67.71
2022-10-20T22:11:55.238Z,66.78
2022-10-20T22:14:23.447Z,66.74
2022-10-20T22:16:51.648Z,66.26
2022-10-20T22:19:21.756Z,67.53
2022-10-20T22:21:50.874Z,67.14
2022-10-20T22:24:20.554Z,67.02
2022-10-20T22:26:48.770Z,67.96
2022-10-20T22:29:17.620Z,67.94
2022-10-20T22:31:45.235Z,67.34
2022-10-20T22:34:12.935Z,67.69
2022-10-20T22:36:40.872Z,67.77
2022-10-20T22:39:08.934Z,68.58
2022-10-20T22:41:36.594Z,69.29
2022-10-20T22:44:04.325Z,69.96
2022-10-20T22:46:31.974Z,69.82
2022-10-20T22:51:31.928Z,67.03
2022-10-20T22:53:59.315Z,69.07
2022-10-20T22:56:26.780Z,69.33
2022-10-20T22:58:54.524Z,70.40
2022-10-20T23:01:23.540Z,69.80
2022-10-20T23:03:51.104Z,70.41
2022-10-20T23:06:24.291Z,70.23
2022-10-20T23:08:53.765Z,74.78
2022-10-20T23:11:22.208Z,72.70
2022-10-20T23:13:51.043Z,72.66
2022-10-20T23:16:18.899Z,72.48
2022-10-20T23:18:47.187Z,71.24
2022-10-20T23:21:14.661Z,70.32
2022-10-20T23:23:42.202Z,69.78
2022-10-20T23:26:10.121Z,71.01
2022-10-20T23:28:38.115Z,71.91
2022-10-20T23:31:14.211Z,73.84
2022-10-20T23:33:43.423Z,75.03
2022-10-20T23:36:12.182Z,73.41
2022-10-20T23:38:39.540Z,72.76
2022-10-20T23:41:09.053Z,71.88
2022-10-20T23:43:39.284Z,72.35
2022-10-20T23:46:07.611Z,71.05
2022-10-20T23:48:39.162Z,71.46
2022-10-20T23:51:08.307Z,71.29
2022-10-20T23:53:35.772Z,72.15
2022-10-20T23:56:03.428Z,73.03
2022-10-20T23:58:31.144Z,71.28
